sensor_id;sensor_type;location;lat;lon;timestamp;P1;durP1;ratioP1;P2;durP2;ratioP2
44304;SDS011;30019;50.576;8.568;2023-03-13T00:00:33;21.45;;;4.95;;
44304;SDS011;30019;50.576;8.568;2023-03-13T00:02:59;21.85;;;3.92;;
44304;SDS011;30019;50.576;8.568;2023-03-13T00:05:25;17.30;;;4.18;;
44304;SDS011;30019;50.576;8.568;2023-03-13T00:07:50;32.13;;;4.82;;
44304;SDS011;30019;50.576;8.568;2023-03-13T00:10:16;22.48;;;4.30;;
44304;SDS011;30019;50.576;8.568;2023-03-13T00:12:42;24.60;;;3.95;;
44304;SDS011;30019;50.576;8.568;2023-03-13T00:15:07;22.48;;;4.72;;
44304;SDS011;30019;50.576;8.568;2023-03-13T00:17:33;28.15;;;4.75;;
44304;SDS011;30019;50.576;8.568;2023-03-13T00:19:59;19.90;;;4.43;;
44304;SDS011;30019;50.576;8.568;2023-03-13T00:22:25;19.48;;;4.45;;
44304;SDS011;30019;50.576;8.568;2023-03-13T00:24:50;25.58;;;4.68;;
44304;SDS011;30019;50.576;8.568;2023-03-13T00:27:16;24.17;;;3.95;;
44304;SDS011;30019;50.576;8.568;2023-03-13T00:29:42;27.48;;;4.07;;
44304;SDS011;30019;50.576;8.568;2023-03-13T00:32:07;26.30;;;4.07;;
44304;SDS011;30019;50.576;8.568;2023-03-13T00:34:33;21.85;;;4.93;;
44304;SDS011;30019;50.576;8.568;2023-03-13T00:36:58;19.55;;;4.03;;
44304;SDS011;30019;50.576;8.568;2023-03-13T00:39:24;22.83;;;4.28;;
44304;SDS011;30019;50.576;8.568;2023-03-13T00:41:49;22.02;;;3.83;;
44304;SDS011;30019;50.576;8.568;2023-03-13T00:44:15;23.90;;;4.00;;
44304;SDS011;30019;50.576;8.568;2023-03-13T00:46:40;25.92;;;5.50;;
44304;SDS011;30019;50.576;8.568;2023-03-13T00:49:06;25.60;;;4.07;;
44304;SDS011;30019;50.576;8.568;2023-03-13T00:51:31;26.42;;;4.12;;
44304;SDS011;30019;50.576;8.568;2023-03-13T00:53:57;24.95;;;4.50;;
44304;SDS011;30019;50.576;8.568;2023-03-13T00:56:27;20.37;;;4.03;;
44304;SDS011;30019;50.576;8.568;2023-03-13T00:58:54;18.75;;;4.57;;
44304;SDS011;30019;50.576;8.568;2023-03-13T01:01:24;23.05;;;4.60;;
44304;SDS011;30019;50.576;8.568;2023-03-13T01:03:53;28.58;;;5.90;;
44304;SDS011;30019;50.576;8.568;2023-03-13T01:06:21;22.00;;;3.97;;
44304;SDS011;30019;50.576;8.568;2023-03-13T01:08:48;26.65;;;3.97;;
44304;SDS011;30019;50.576;8.568;2023-03-13T01:11:16;26.98;;;4.87;;
44304;SDS011;30019;50.576;8.568;2023-03-13T01:13:44;26.60;;;4.85;;
44304;SDS011;30019;50.576;8.568;2023-03-13T01:16:15;23.52;;;4.78;;
44304;SDS011;30019;50.576;8.568;2023-03-13T01:18:44;23.17;;;4.87;;
44304;SDS011;30019;50.576;8.568;2023-03-13T01:21:14;22.33;;;4.35;;
44304;SDS011;30019;50.576;8.568;2023-03-13T01:23:40;36.28;;;5.53;;
44304;SDS011;30019;50.576;8.568;2023-03-13T01:26:07;19.75;;;4.50;;
44304;SDS011;30019;50.576;8.568;2023-03-13T01:28:33;22.00;;;4.20;;
44304;SDS011;30019;50.576;8.568;2023-03-13T01:30:59;21.08;;;3.87;;
44304;SDS011;30019;50.576;8.568;2023-03-13T01:33:34;24.12;;;4.22;;
44304;SDS011;30019;50.576;8.568;2023-03-13T01:36:00;18.02;;;3.62;;
44304;SDS011;30019;50.576;8.568;2023-03-13T01:38:26;24.85;;;4.45;;
44304;SDS011;30019;50.576;8.568;2023-03-13T01:40:51;21.10;;;4.10;;
44304;SDS011;30019;50.576;8.568;2023-03-13T01:43:20;31.08;;;5.28;;
44304;SDS011;30019;50.576;8.568;2023-03-13T01:53:54;17.08;;;3.12;;
44304;SDS011;30019;50.576;8.568;2023-03-13T01:56:28;24.77;;;4.45;;
44304;SDS011;30019;50.576;8.568;2023-03-13T01:59:51;22.23;;;3.72;;
44304;SDS011;30019;50.576;8.568;2023-03-13T02:02:32;24.63;;;3.92;;
44304;SDS011;30019;50.576;8.568;2023-03-13T02:04:59;17.98;;;3.85;;
44304;SDS011;30019;50.576;8.568;2023-03-13T02:07:28;22.33;;;4.12;;
44304;SDS011;30019;50.576;8.568;2023-03-13T02:09:58;14.82;;;2.75;;
44304;SDS011;30019;50.576;8.568;2023-03-13T02:12:29;18.05;;;3.00;;
44304;SDS011;30019;50.576;8.568;2023-03-13T02:15:00;22.40;;;3.92;;
44304;SDS011;30019;50.576;8.568;2023-03-13T02:17:32;21.00;;;4.32;;
44304;SDS011;30019;50.576;8.568;2023-03-13T02:19:59;22.95;;;4.55;;
44304;SDS011;30019;50.576;8.568;2023-03-13T02:22:27;22.08;;;4.12;;
44304;SDS011;30019;50.576;8.568;2023-03-13T02:27:35;22.15;;;4.82;;
44304;SDS011;30019;50.576;8.568;2023-03-13T02:30:01;24.70;;;4.32;;
44304;SDS011;30019;50.576;8.568;2023-03-13T02:32:29;21.60;;;3.95;;
44304;SDS011;30019;50.576;8.568;2023-03-13T02:34:56;25.83;;;5.20;;
44304;SDS011;30019;50.576;8.568;2023-03-13T02:37:26;24.48;;;4.65;;
44304;SDS011;30019;50.576;8.568;2023-03-13T02:39:54;23.10;;;4.03;;
44304;SDS011;30019;50.576;8.568;2023-03-13T02:42:23;21.42;;;4.00;;
44304;SDS011;30019;50.576;8.568;2023-03-13T02:44:49;23.40;;;3.85;;
44304;SDS011;30019;50.576;8.568;2023-03-13T02:47:16;26.25;;;4.30;;
44304;SDS011;30019;50.576;8.568;2023-03-13T02:49:46;23.27;;;5.15;;
44304;SDS011;30019;50.576;8.568;2023-03-13T02:52:30;23.23;;;3.53;;
44304;SDS011;30019;50.576;8.568;2023-03-13T02:55:04;25.80;;;4.30;;
44304;SDS011;30019;50.576;8.568;2023-03-13T02:57:33;21.48;;;3.85;;
44304;SDS011;30019;50.576;8.568;2023-03-13T02:59:59;22.27;;;3.87;;
44304;SDS011;30019;50.576;8.568;2023-03-13T03:02:25;29.87;;;4.75;;
44304;SDS011;30019;50.576;8.568;2023-03-13T03:04:51;24.17;;;3.85;;
44304;SDS011;30019;50.576;8.568;2023-03-13T03:07:16;25.12;;;4.45;;
44304;SDS011;30019;50.576;8.568;2023-03-13T03:09:42;21.98;;;3.83;;
44304;SDS011;30019;50.576;8.568;2023-03-13T03:12:08;21.25;;;3.67;;
44304;SDS011;30019;50.576;8.568;2023-03-13T03:14:33;19.77;;;4.05;;
44304;SDS011;30019;50.576;8.568;2023-03-13T03:16:59;19.30;;;4.00;;
44304;SDS011;30019;50.576;8.568;2023-03-13T03:19:25;17.37;;;4.70;;
44304;SDS011;30019;50.576;8.568;2023-03-13T03:21:50;23.95;;;4.47;;
44304;SDS011;30019;50.576;8.568;2023-03-13T03:24:16;21.95;;;4.05;;
44304;SDS011;30019;50.576;8.568;2023-03-13T03:26:41;17.02;;;3.30;;
44304;SDS011;30019;50.576;8.568;2023-03-13T03:29:07;19.52;;;3.58;;
44304;SDS011;30019;50.576;8.568;2023-03-13T03:31:33;21.35;;;4.20;;
44304;SDS011;30019;50.576;8.568;2023-03-13T03:33:58;25.10;;;4.90;;
44304;SDS011;30019;50.576;8.568;2023-03-13T03:36:24;14.52;;;3.17;;
44304;SDS011;30019;50.576;8.568;2023-03-13T03:38:50;18.83;;;3.15;;
44304;SDS011;30019;50.576;8.568;2023-03-13T03:41:15;15.85;;;3.05;;
44304;SDS011;30019;50.576;8.568;2023-03-13T03:43:43;14.23;;;2.85;;
44304;SDS011;30019;50.576;8.568;2023-03-13T03:46:08;16.92;;;3.00;;
44304;SDS011;30019;50.576;8.568;2023-03-13T03:48:34;22.08;;;3.10;;
44304;SDS011;30019;50.576;8.568;2023-03-13T03:51:00;15.25;;;4.03;;
44304;SDS011;30019;50.576;8.568;2023-03-13T03:53:26;15.07;;;2.85;;
44304;SDS011;30019;50.576;8.568;2023-03-13T03:55:52;17.90;;;3.30;;
44304;SDS011;30019;50.576;8.568;2023-03-13T03:58:18;17.10;;;2.87;;
44304;SDS011;30019;50.576;8.568;2023-03-13T04:00:45;14.80;;;3.92;;
44304;SDS011;30019;50.576;8.568;2023-03-13T04:03:11;10.48;;;2.17;;
44304;SDS011;30019;50.576;8.568;2023-03-13T04:05:37;14.15;;;2.92;;
44304;SDS011;30019;50.576;8.568;2023-03-13T04:08:02;19.58;;;3.50;;
44304;SDS011;30019;50.576;8.568;2023-03-13T04:10:28;14.23;;;3.78;;
44304;SDS011;30019;50.576;8.568;2023-03-13T04:12:53;16.23;;;2.72;;
44304;SDS011;30019;50.576;8.568;2023-03-13T04:15:19;11.85;;;2.83;;
44304;SDS011;30019;50.576;8.568;2023-03-13T04:17:45;17.85;;;3.30;;
44304;SDS011;30019;50.576;8.568;2023-03-13T04:20:10;14.87;;;3.10;;
44304;SDS011;30019;50.576;8.568;2023-03-13T04:22:38;14.02;;;3.90;;
44304;SDS011;30019;50.576;8.568;2023-03-13T04:25:04;10.30;;;3.30;;
44304;SDS011;30019;50.576;8.568;2023-03-13T04:27:31;12.85;;;3.20;;
44304;SDS011;30019;50.576;8.568;2023-03-13T04:29:57;11.48;;;2.58;;
44304;SDS011;30019;50.576;8.568;2023-03-13T04:32:23;11.20;;;2.58;;
44304;SDS011;30019;50.576;8.568;2023-03-13T04:34:49;10.25;;;2.75;;
44304;SDS011;30019;50.576;8.568;2023-03-13T04:37:14;10.15;;;2.05;;
44304;SDS011;30019;50.576;8.568;2023-03-13T04:39:40;7.97;;;2.42;;
44304;SDS011;30019;50.576;8.568;2023-03-13T04:42:06;11.63;;;2.78;;
44304;SDS011;30019;50.576;8.568;2023-03-13T04:44:33;7.90;;;1.87;;
44304;SDS011;30019;50.576;8.568;2023-03-13T04:46:59;9.13;;;2.35;;
44304;SDS011;30019;50.576;8.568;2023-03-13T04:49:24;12.60;;;2.25;;
44304;SDS011;30019;50.576;8.568;2023-03-13T04:51:50;7.45;;;1.87;;
44304;SDS011;30019;50.576;8.568;2023-03-13T04:54:16;12.00;;;2.25;;
44304;SDS011;30019;50.576;8.568;2023-03-13T04:56:41;7.85;;;2.20;;
44304;SDS011;30019;50.576;8.568;2023-03-13T04:59:07;10.93;;;2.03;;
44304;SDS011;30019;50.576;8.568;2023-03-13T05:01:33;6.93;;;2.08;;
44304;SDS011;30019;50.576;8.568;2023-03-13T05:03:59;7.03;;;2.03;;
44304;SDS011;30019;50.576;8.568;2023-03-13T05:06:24;10.27;;;2.50;;
44304;SDS011;30019;50.576;8.568;2023-03-13T05:08:50;6.05;;;1.58;;
44304;SDS011;30019;50.576;8.568;2023-03-13T05:11:16;13.23;;;2.25;;
44304;SDS011;30019;50.576;8.568;2023-03-13T05:13:41;6.97;;;2.00;;
44304;SDS011;30019;50.576;8.568;2023-03-13T05:16:07;6.65;;;1.90;;
44304;SDS011;30019;50.576;8.568;2023-03-13T05:18:32;7.22;;;1.40;;
44304;SDS011;30019;50.576;8.568;2023-03-13T05:20:58;4.12;;;1.50;;
44304;SDS011;30019;50.576;8.568;2023-03-13T05:23:24;5.97;;;1.70;;
44304;SDS011;30019;50.576;8.568;2023-03-13T05:25:49;6.37;;;1.37;;
44304;SDS011;30019;50.576;8.568;2023-03-13T05:28:15;7.72;;;1.67;;
44304;SDS011;30019;50.576;8.568;2023-03-13T05:30:40;6.35;;;1.62;;
44304;SDS011;30019;50.576;8.568;2023-03-13T05:33:06;4.43;;;1.58;;
44304;SDS011;30019;50.576;8.568;2023-03-13T05:35:31;3.15;;;1.27;;
44304;SDS011;30019;50.576;8.568;2023-03-13T05:37:57;4.62;;;1.40;;
44304;SDS011;30019;50.576;8.568;2023-03-13T05:40:23;2.47;;;1.20;;
44304;SDS011;30019;50.576;8.568;2023-03-13T05:42:48;7.70;;;1.75;;
44304;SDS011;30019;50.576;8.568;2023-03-13T05:45:14;2.62;;;1.23;;
44304;SDS011;30019;50.576;8.568;2023-03-13T05:47:39;6.00;;;1.50;;
44304;SDS011;30019;50.576;8.568;2023-03-13T05:50:06;2.78;;;1.30;;
44304;SDS011;30019;50.576;8.568;2023-03-13T05:52:32;4.47;;;1.83;;
44304;SDS011;30019;50.576;8.568;2023-03-13T05:54:58;3.70;;;1.58;;
44304;SDS011;30019;50.576;8.568;2023-03-13T05:57:24;3.08;;;1.42;;
44304;SDS011;30019;50.576;8.568;2023-03-13T05:59:50;3.42;;;1.50;;
44304;SDS011;30019;50.576;8.568;2023-03-13T06:02:15;4.68;;;1.60;;
44304;SDS011;30019;50.576;8.568;2023-03-13T06:04:41;4.78;;;1.42;;
44304;SDS011;30019;50.576;8.568;2023-03-13T06:07:06;2.78;;;1.40;;
44304;SDS011;30019;50.576;8.568;2023-03-13T06:09:32;3.28;;;1.10;;
44304;SDS011;30019;50.576;8.568;2023-03-13T06:11:58;3.33;;;1.40;;
44304;SDS011;30019;50.576;8.568;2023-03-13T06:14:23;5.47;;;1.15;;
44304;SDS011;30019;50.576;8.568;2023-03-13T06:16:49;4.53;;;1.73;;
44304;SDS011;30019;50.576;8.568;2023-03-13T06:19:15;2.80;;;1.45;;
44304;SDS011;30019;50.576;8.568;2023-03-13T06:21:40;5.00;;;1.60;;
44304;SDS011;30019;50.576;8.568;2023-03-13T06:24:06;3.00;;;1.15;;
44304;SDS011;30019;50.576;8.568;2023-03-13T06:26:32;6.55;;;1.40;;
44304;SDS011;30019;50.576;8.568;2023-03-13T06:28:57;1.73;;;1.48;;
44304;SDS011;30019;50.576;8.568;2023-03-13T06:31:23;1.67;;;1.00;;
44304;SDS011;30019;50.576;8.568;2023-03-13T06:33:53;1.45;;;1.35;;
44304;SDS011;30019;50.576;8.568;2023-03-13T06:36:19;4.35;;;1.42;;
44304;SDS011;30019;50.576;8.568;2023-03-13T06:38:45;4.95;;;1.48;;
44304;SDS011;30019;50.576;8.568;2023-03-13T06:41:10;5.57;;;1.98;;
44304;SDS011;30019;50.576;8.568;2023-03-13T06:43:36;8.13;;;2.37;;
44304;SDS011;30019;50.576;8.568;2023-03-13T06:46:04;7.82;;;3.30;;
44304;SDS011;30019;50.576;8.568;2023-03-13T06:48:30;6.90;;;3.28;;
44304;SDS011;30019;50.576;8.568;2023-03-13T06:50:56;4.78;;;2.70;;
44304;SDS011;30019;50.576;8.568;2023-03-13T06:53:21;8.93;;;2.00;;
44304;SDS011;30019;50.576;8.568;2023-03-13T06:55:47;4.47;;;1.67;;
44304;SDS011;30019;50.576;8.568;2023-03-13T06:58:13;2.58;;;1.37;;
44304;SDS011;30019;50.576;8.568;2023-03-13T07:00:39;1.50;;;0.98;;
44304;SDS011;30019;50.576;8.568;2023-03-13T07:03:06;4.30;;;1.08;;
44304;SDS011;30019;50.576;8.568;2023-03-13T07:05:32;3.15;;;1.23;;
44304;SDS011;30019;50.576;8.568;2023-03-13T07:07:58;2.10;;;1.90;;
44304;SDS011;30019;50.576;8.568;2023-03-13T07:10:24;2.28;;;1.15;;
44304;SDS011;30019;50.576;8.568;2023-03-13T07:12:49;3.00;;;1.40;;
44304;SDS011;30019;50.576;8.568;2023-03-13T07:15:15;2.65;;;1.10;;
44304;SDS011;30019;50.576;8.568;2023-03-13T07:17:40;1.42;;;1.00;;
44304;SDS011;30019;50.576;8.568;2023-03-13T07:20:06;2.65;;;1.00;;
44304;SDS011;30019;50.576;8.568;2023-03-13T07:22:34;1.52;;;0.88;;
44304;SDS011;30019;50.576;8.568;2023-03-13T07:25:00;2.15;;;1.27;;
44304;SDS011;30019;50.576;8.568;2023-03-13T07:27:26;1.15;;;0.80;;
44304;SDS011;30019;50.576;8.568;2023-03-13T07:29:51;1.05;;;0.95;;
44304;SDS011;30019;50.576;8.568;2023-03-13T07:32:17;2.92;;;0.90;;
44304;SDS011;30019;50.576;8.568;2023-03-13T07:34:43;1.57;;;0.90;;
44304;SDS011;30019;50.576;8.568;2023-03-13T07:37:09;0.75;;;0.70;;
44304;SDS011;30019;50.576;8.568;2023-03-13T07:39:38;1.83;;;0.90;;
44304;SDS011;30019;50.576;8.568;2023-03-13T07:42:04;1.15;;;0.93;;
44304;SDS011;30019;50.576;8.568;2023-03-13T07:44:29;2.25;;;1.00;;
44304;SDS011;30019;50.576;8.568;2023-03-13T07:46:58;1.98;;;0.90;;
44304;SDS011;30019;50.576;8.568;2023-03-13T07:49:24;1.70;;;0.80;;
44304;SDS011;30019;50.576;8.568;2023-03-13T07:51:50;0.80;;;0.80;;
44304;SDS011;30019;50.576;8.568;2023-03-13T07:54:15;1.90;;;0.82;;
44304;SDS011;30019;50.576;8.568;2023-03-13T07:56:41;0.85;;;0.80;;
44304;SDS011;30019;50.576;8.568;2023-03-13T07:59:06;1.70;;;0.80;;
44304;SDS011;30019;50.576;8.568;2023-03-13T08:01:32;0.75;;;0.75;;
44304;SDS011;30019;50.576;8.568;2023-03-13T08:03:58;3.15;;;1.33;;
44304;SDS011;30019;50.576;8.568;2023-03-13T08:06:28;1.57;;;1.10;;
44304;SDS011;30019;50.576;8.568;2023-03-13T08:09:02;1.58;;;1.12;;
44304;SDS011;30019;50.576;8.568;2023-03-13T08:11:29;2.30;;;1.00;;
44304;SDS011;30019;50.576;8.568;2023-03-13T08:13:55;3.37;;;1.98;;
44304;SDS011;30019;50.576;8.568;2023-03-13T08:16:22;3.08;;;1.83;;
44304;SDS011;30019;50.576;8.568;2023-03-13T08:18:49;1.12;;;1.10;;
44304;SDS011;30019;50.576;8.568;2023-03-13T08:21:37;6.45;;;3.20;;
44304;SDS011;30019;50.576;8.568;2023-03-13T08:24:04;5.28;;;1.80;;
44304;SDS011;30019;50.576;8.568;2023-03-13T08:26:31;2.83;;;1.50;;
44304;SDS011;30019;50.576;8.568;2023-03-13T08:28:59;3.55;;;1.35;;
44304;SDS011;30019;50.576;8.568;2023-03-13T08:31:27;1.25;;;1.23;;
44304;SDS011;30019;50.576;8.568;2023-03-13T08:33:54;2.15;;;1.70;;
44304;SDS011;30019;50.576;8.568;2023-03-13T08:36:21;1.60;;;1.40;;
44304;SDS011;30019;50.576;8.568;2023-03-13T08:39:11;4.82;;;1.45;;
44304;SDS011;30019;50.576;8.568;2023-03-13T08:41:41;2.05;;;1.37;;
44304;SDS011;30019;50.576;8.568;2023-03-13T08:44:08;2.53;;;1.75;;
44304;SDS011;30019;50.576;8.568;2023-03-13T08:46:36;4.68;;;1.87;;
44304;SDS011;30019;50.576;8.568;2023-03-13T08:49:02;4.75;;;2.60;;
44304;SDS011;30019;50.576;8.568;2023-03-13T08:51:29;2.83;;;1.92;;
44304;SDS011;30019;50.576;8.568;2023-03-13T08:53:55;2.08;;;1.50;;
44304;SDS011;30019;50.576;8.568;2023-03-13T08:56:22;6.03;;;1.50;;
44304;SDS011;30019;50.576;8.568;2023-03-13T08:58:50;3.58;;;1.45;;
44304;SDS011;30019;50.576;8.568;2023-03-13T09:01:17;4.85;;;1.73;;
44304;SDS011;30019;50.576;8.568;2023-03-13T09:03:43;2.15;;;1.50;;
44304;SDS011;30019;50.576;8.568;2023-03-13T09:06:09;3.12;;;1.70;;
44304;SDS011;30019;50.576;8.568;2023-03-13T09:08:35;2.80;;;1.50;;
44304;SDS011;30019;50.576;8.568;2023-03-13T09:11:05;2.37;;;1.50;;
44304;SDS011;30019;50.576;8.568;2023-03-13T09:13:34;2.47;;;1.40;;
44304;SDS011;30019;50.576;8.568;2023-03-13T09:16:05;6.85;;;1.67;;
44304;SDS011;30019;50.576;8.568;2023-03-13T09:18:33;1.60;;;1.20;;
44304;SDS011;30019;50.576;8.568;2023-03-13T09:20:59;2.65;;;1.30;;
44304;SDS011;30019;50.576;8.568;2023-03-13T09:23:25;4.95;;;1.50;;
44304;SDS011;30019;50.576;8.568;2023-03-13T09:26:00;2.83;;;1.45;;
44304;SDS011;30019;50.576;8.568;2023-03-13T09:28:28;6.32;;;2.75;;
44304;SDS011;30019;50.576;8.568;2023-03-13T09:30:54;2.95;;;1.60;;
44304;SDS011;30019;50.576;8.568;2023-03-13T09:33:20;3.15;;;1.58;;
44304;SDS011;30019;50.576;8.568;2023-03-13T09:35:50;3.65;;;1.40;;
44304;SDS011;30019;50.576;8.568;2023-03-13T09:38:16;3.92;;;1.60;;
44304;SDS011;30019;50.576;8.568;2023-03-13T09:40:47;5.55;;;1.80;;
44304;SDS011;30019;50.576;8.568;2023-03-13T09:43:23;4.45;;;1.52;;
44304;SDS011;30019;50.576;8.568;2023-03-13T09:46:00;5.32;;;1.55;;
44304;SDS011;30019;50.576;8.568;2023-03-13T09:48:38;5.10;;;2.15;;
44304;SDS011;30019;50.576;8.568;2023-03-13T09:51:16;3.47;;;1.70;;
44304;SDS011;30019;50.576;8.568;2023-03-13T09:54:02;6.47;;;1.92;;
44304;SDS011;30019;50.576;8.568;2023-03-13T09:57:06;4.47;;;1.55;;
44304;SDS011;30019;50.576;8.568;2023-03-13T09:59:33;1.77;;;1.45;;
44304;SDS011;30019;50.576;8.568;2023-03-13T10:02:15;4.15;;;1.58;;
44304;SDS011;30019;50.576;8.568;2023-03-13T10:04:51;3.97;;;1.62;;
44304;SDS011;30019;50.576;8.568;2023-03-13T10:07:22;5.10;;;1.92;;
44304;SDS011;30019;50.576;8.568;2023-03-13T10:09:47;2.08;;;1.70;;
44304;SDS011;30019;50.576;8.568;2023-03-13T10:12:23;3.12;;;1.35;;
44304;SDS011;30019;50.576;8.568;2023-03-13T10:14:56;5.35;;;1.60;;
44304;SDS011;30019;50.576;8.568;2023-03-13T10:17:33;2.30;;;1.40;;
44304;SDS011;30019;50.576;8.568;2023-03-13T10:22:35;2.25;;;1.60;;
44304;SDS011;30019;50.576;8.568;2023-03-13T10:25:05;3.67;;;1.80;;
44304;SDS011;30019;50.576;8.568;2023-03-13T10:27:53;7.10;;;1.85;;
44304;SDS011;30019;50.576;8.568;2023-03-13T10:30:23;4.55;;;2.03;;
44304;SDS011;30019;50.576;8.568;2023-03-13T10:33:11;1.52;;;1.17;;
44304;SDS011;30019;50.576;8.568;2023-03-13T10:35:45;4.20;;;1.73;;
44304;SDS011;30019;50.576;8.568;2023-03-13T10:38:23;3.50;;;2.17;;
44304;SDS011;30019;50.576;8.568;2023-03-13T10:43:30;2.78;;;1.40;;
44304;SDS011;30019;50.576;8.568;2023-03-13T10:45:55;4.18;;;1.30;;
44304;SDS011;30019;50.576;8.568;2023-03-13T10:48:24;6.22;;;1.55;;
44304;SDS011;30019;50.576;8.568;2023-03-13T10:50:53;1.60;;;1.40;;
44304;SDS011;30019;50.576;8.568;2023-03-13T10:53:31;7.18;;;1.42;;
44304;SDS011;30019;50.576;8.568;2023-03-13T10:56:11;1.50;;;1.40;;
44304;SDS011;30019;50.576;8.568;2023-03-13T10:58:42;2.30;;;1.20;;
44304;SDS011;30019;50.576;8.568;2023-03-13T11:01:14;3.92;;;1.12;;
44304;SDS011;30019;50.576;8.568;2023-03-13T11:03:46;1.55;;;1.40;;
44304;SDS011;30019;50.576;8.568;2023-03-13T11:11:30;2.03;;;1.27;;
44304;SDS011;30019;50.576;8.568;2023-03-13T11:14:07;4.80;;;1.60;;
44304;SDS011;30019;50.576;8.568;2023-03-13T11:16:43;2.55;;;1.35;;
44304;SDS011;30019;50.576;8.568;2023-03-13T11:25:01;3.50;;;1.30;;
44304;SDS011;30019;50.576;8.568;2023-03-13T11:27:37;2.72;;;1.48;;
44304;SDS011;30019;50.576;8.568;2023-03-13T11:32:54;4.15;;;1.50;;
44304;SDS011;30019;50.576;8.568;2023-03-13T11:35:25;3.58;;;1.30;;
44304;SDS011;30019;50.576;8.568;2023-03-13T11:37:58;4.12;;;1.40;;
44304;SDS011;30019;50.576;8.568;2023-03-13T11:40:38;2.25;;;1.60;;
44304;SDS011;30019;50.576;8.568;2023-03-13T11:48:41;1.42;;;1.30;;
44304;SDS011;30019;50.576;8.568;2023-03-13T11:51:32;3.72;;;1.67;;
44304;SDS011;30019;50.576;8.568;2023-03-13T11:56:57;2.20;;;1.52;;
44304;SDS011;30019;50.576;8.568;2023-03-13T12:05:00;3.67;;;1.62;;
44304;SDS011;30019;50.576;8.568;2023-03-13T12:07:40;4.25;;;2.15;;
44304;SDS011;30019;50.576;8.568;2023-03-13T12:10:11;1.85;;;1.55;;
44304;SDS011;30019;50.576;8.568;2023-03-13T12:12:44;2.28;;;1.87;;
44304;SDS011;30019;50.576;8.568;2023-03-13T12:26:14;2.53;;;1.40;;
44304;SDS011;30019;50.576;8.568;2023-03-13T12:34:19;1.75;;;1.42;;
44304;SDS011;30019;50.576;8.568;2023-03-13T12:36:52;1.37;;;1.25;;
44304;SDS011;30019;50.576;8.568;2023-03-13T12:39:47;2.15;;;1.30;;
44304;SDS011;30019;50.576;8.568;2023-03-13T12:45:05;1.85;;;1.40;;
44304;SDS011;30019;50.576;8.568;2023-03-13T12:47:59;2.55;;;1.20;;
44304;SDS011;30019;50.576;8.568;2023-03-13T12:56:25;2.72;;;1.40;;
44304;SDS011;30019;50.576;8.568;2023-03-13T12:59:13;2.33;;;1.40;;
44304;SDS011;30019;50.576;8.568;2023-03-13T13:01:44;4.60;;;2.20;;
44304;SDS011;30019;50.576;8.568;2023-03-13T13:04:21;2.90;;;1.95;;
44304;SDS011;30019;50.576;8.568;2023-03-13T13:07:00;2.00;;;1.70;;
44304;SDS011;30019;50.576;8.568;2023-03-13T13:09:30;2.22;;;1.62;;
44304;SDS011;30019;50.576;8.568;2023-03-13T13:30:00;3.40;;;1.80;;
44304;SDS011;30019;50.576;8.568;2023-03-13T13:32:41;3.62;;;2.03;;
44304;SDS011;30019;50.576;8.568;2023-03-13T13:37:47;3.30;;;1.50;;
44304;SDS011;30019;50.576;8.568;2023-03-13T13:45:23;4.37;;;1.70;;
44304;SDS011;30019;50.576;8.568;2023-03-13T13:53:56;2.17;;;1.67;;
44304;SDS011;30019;50.576;8.568;2023-03-13T13:59:01;2.97;;;1.50;;
44304;SDS011;30019;50.576;8.568;2023-03-13T14:01:49;5.55;;;2.03;;
44304;SDS011;30019;50.576;8.568;2023-03-13T14:04:38;4.40;;;1.87;;
44304;SDS011;30019;50.576;8.568;2023-03-13T14:07:10;1.65;;;1.42;;
44304;SDS011;30019;50.576;8.568;2023-03-13T14:12:30;2.53;;;1.60;;
44304;SDS011;30019;50.576;8.568;2023-03-13T14:15:12;2.95;;;2.05;;
44304;SDS011;30019;50.576;8.568;2023-03-13T14:17:48;3.58;;;1.60;;
44304;SDS011;30019;50.576;8.568;2023-03-13T14:20:17;5.05;;;2.00;;
44304;SDS011;30019;50.576;8.568;2023-03-13T14:22:46;3.08;;;1.52;;
44304;SDS011;30019;50.576;8.568;2023-03-13T14:25:12;2.47;;;1.40;;
44304;SDS011;30019;50.576;8.568;2023-03-13T14:27:42;2.45;;;1.42;;
44304;SDS011;30019;50.576;8.568;2023-03-13T14:30:09;1.95;;;1.30;;
44304;SDS011;30019;50.576;8.568;2023-03-13T14:32:36;3.45;;;1.80;;
44304;SDS011;30019;50.576;8.568;2023-03-13T14:35:03;2.47;;;1.77;;
44304;SDS011;30019;50.576;8.568;2023-03-13T14:37:43;3.37;;;1.50;;
44304;SDS011;30019;50.576;8.568;2023-03-13T14:40:23;2.15;;;1.80;;
44304;SDS011;30019;50.576;8.568;2023-03-13T14:42:57;6.75;;;1.62;;
44304;SDS011;30019;50.576;8.568;2023-03-13T14:45:31;2.75;;;2.00;;
44304;SDS011;30019;50.576;8.568;2023-03-13T14:50:28;5.62;;;2.03;;
44304;SDS011;30019;50.576;8.568;2023-03-13T14:52:56;4.55;;;2.22;;
44304;SDS011;30019;50.576;8.568;2023-03-13T14:55:30;6.75;;;2.97;;
44304;SDS011;30019;50.576;8.568;2023-03-13T14:57:58;4.55;;;2.10;;
44304;SDS011;30019;50.576;8.568;2023-03-13T15:08:39;3.30;;;2.47;;
44304;SDS011;30019;50.576;8.568;2023-03-13T15:11:29;4.15;;;2.78;;
44304;SDS011;30019;50.576;8.568;2023-03-13T15:13:57;4.30;;;2.10;;
44304;SDS011;30019;50.576;8.568;2023-03-13T15:16:23;3.37;;;2.20;;
44304;SDS011;30019;50.576;8.568;2023-03-13T15:18:50;4.75;;;1.70;;
44304;SDS011;30019;50.576;8.568;2023-03-13T15:21:24;7.15;;;2.22;;
44304;SDS011;30019;50.576;8.568;2023-03-13T15:24:01;2.92;;;2.00;;
44304;SDS011;30019;50.576;8.568;2023-03-13T15:26:38;2.87;;;2.08;;
44304;SDS011;30019;50.576;8.568;2023-03-13T15:29:04;5.75;;;2.62;;
44304;SDS011;30019;50.576;8.568;2023-03-13T15:31:29;5.57;;;3.30;;
44304;SDS011;30019;50.576;8.568;2023-03-13T15:33:57;3.80;;;2.50;;
44304;SDS011;30019;50.576;8.568;2023-03-13T15:36:24;3.05;;;2.55;;
44304;SDS011;30019;50.576;8.568;2023-03-13T15:38:51;9.93;;;3.08;;
44304;SDS011;30019;50.576;8.568;2023-03-13T15:41:17;4.07;;;3.30;;
44304;SDS011;30019;50.576;8.568;2023-03-13T15:43:43;7.40;;;3.20;;
44304;SDS011;30019;50.576;8.568;2023-03-13T15:46:11;8.10;;;3.67;;
44304;SDS011;30019;50.576;8.568;2023-03-13T15:48:40;11.75;;;3.58;;
44304;SDS011;30019;50.576;8.568;2023-03-13T15:51:09;13.15;;;4.40;;
44304;SDS011;30019;50.576;8.568;2023-03-13T15:53:38;9.88;;;4.60;;
44304;SDS011;30019;50.576;8.568;2023-03-13T15:56:10;9.40;;;4.22;;
44304;SDS011;30019;50.576;8.568;2023-03-13T15:58:39;9.63;;;4.40;;
44304;SDS011;30019;50.576;8.568;2023-03-13T16:01:04;9.30;;;5.05;;
44304;SDS011;30019;50.576;8.568;2023-03-13T16:03:30;10.27;;;5.12;;
44304;SDS011;30019;50.576;8.568;2023-03-13T16:05:56;10.75;;;5.90;;
44304;SDS011;30019;50.576;8.568;2023-03-13T16:08:23;18.12;;;7.62;;
44304;SDS011;30019;50.576;8.568;2023-03-13T16:10:50;13.73;;;6.32;;
44304;SDS011;30019;50.576;8.568;2023-03-13T16:13:16;21.23;;;7.25;;
44304;SDS011;30019;50.576;8.568;2023-03-13T16:15:42;13.13;;;6.05;;
44304;SDS011;30019;50.576;8.568;2023-03-13T16:18:09;13.70;;;5.65;;
44304;SDS011;30019;50.576;8.568;2023-03-13T16:20:43;18.37;;;6.55;;
44304;SDS011;30019;50.576;8.568;2023-03-13T16:23:09;6.25;;;4.20;;
44304;SDS011;30019;50.576;8.568;2023-03-13T16:25:35;34.53;;;23.20;;
44304;SDS011;30019;50.576;8.568;2023-03-13T16:28:01;6.45;;;4.30;;
44304;SDS011;30019;50.576;8.568;2023-03-13T16:30:28;18.00;;;5.35;;
44304;SDS011;30019;50.576;8.568;2023-03-13T16:32:56;6.05;;;2.60;;
44304;SDS011;30019;50.576;8.568;2023-03-13T16:35:22;4.75;;;1.80;;
44304;SDS011;30019;50.576;8.568;2023-03-13T16:37:50;2.55;;;1.45;;
44304;SDS011;30019;50.576;8.568;2023-03-13T16:40:21;1.92;;;1.23;;
44304;SDS011;30019;50.576;8.568;2023-03-13T16:42:48;4.82;;;1.00;;
44304;SDS011;30019;50.576;8.568;2023-03-13T16:45:13;3.12;;;1.17;;
44304;SDS011;30019;50.576;8.568;2023-03-13T16:47:40;2.35;;;1.17;;
44304;SDS011;30019;50.576;8.568;2023-03-13T16:50:48;1.40;;;1.00;;